Time;durP1;ratioP1;P1;durP2;ratioP2;P2;SDS_P1;SDS_P2;PMS_P1;PMS_P2;Temp;Humidity;BMP_temperature;BMP_pressure;BME280_temperature;BME280_humidity;BME280_pressure;Samples;Min_cycle;Max_cycle;Signal;HPM_P1;HPM_P2
2021/12/24 00:01:19;;;;;;;103.83;42.67;;;10.10;99.90;;;;;;5092380;27;38530;-73
2021/12/24 00:03:46;;;;;;;85.17;40.20;;;10.20;99.90;;;;;;5087205;27;38169;-73
2021/12/24 00:06:13;;;;;;;70.53;35.10;;;10.20;99.90;;;;;;5083685;27;37210;-73
2021/12/24 00:08:39;;;;;;;68.07;34.70;;;10.20;99.90;;;;;;5069484;28;40705;-73
2021/12/24 00:11:07;;;;;;;76.77;36.60;;;10.30;99.90;;;;;;5090696;27;39791;-73
2021/12/24 00:13:38;;;;;;;80.63;36.80;;;10.20;99.90;;;;;;5086159;27;38638;-73
2021/12/24 00:18:44;;;;;;;70.43;34.30;;;10.30;99.90;;;;;;5085963;27;38763;-73
2021/12/24 00:37:32;;;;;;;77.10;35.00;;;10.30;99.90;;;;;;5079859;27;46770;-73
2021/12/24 00:42:27;;;;;;;71.67;32.67;;;10.40;99.90;;;;;;5083744;27;49098;-72
2021/12/24 00:44:53;;;;;;;77.67;35.03;;;10.30;99.90;;;;;;5084965;27;38270;-71
2021/12/24 00:47:19;;;;;;;81.57;33.07;;;10.30;99.90;;;;;;5081970;27;37393;-72
2021/12/24 00:49:45;;;;;;;74.73;33.33;;;10.40;99.90;;;;;;5083855;28;39299;-74
2021/12/24 00:55:05;;;;;;;81.23;31.50;;;10.40;99.90;;;;;;5079696;27;38739;-73
2021/12/24 00:57:39;;;;;;;82.13;31.43;;;10.40;99.90;;;;;;5072437;27;48583;-72
2021/12/24 01:00:09;;;;;;;71.23;29.77;;;10.50;99.90;;;;;;5080571;28;40943;-73
2021/12/24 01:02:35;;;;;;;76.73;30.20;;;10.50;99.90;;;;;;5087294;27;47030;-74
2021/12/24 01:05:03;;;;;;;84.53;30.13;;;10.50;99.90;;;;;;5076971;27;37969;-73
2021/12/24 01:07:29;;;;;;;90.47;30.73;;;10.50;99.90;;;;;;5081913;28;46818;-73
2021/12/24 01:09:55;;;;;;;79.13;28.73;;;10.50;99.90;;;;;;5092263;27;40229;-73
2021/12/24 01:12:23;;;;;;;65.40;25.87;;;10.50;99.90;;;;;;5078127;27;38721;-73
2021/12/24 01:14:49;;;;;;;76.40;27.23;;;10.40;99.90;;;;;;5079374;27;38301;-73
2021/12/24 01:17:32;;;;;;;71.17;27.63;;;10.50;99.90;;;;;;5082599;27;38371;-73
2021/12/24 01:20:07;;;;;;;63.17;25.13;;;10.50;99.90;;;;;;5073931;28;39788;-73
2021/12/24 01:39:09;;;;;;;48.83;22.17;;;10.50;99.90;;;;;;5081385;27;38294;-74
2021/12/24 01:44:26;;;;;;;56.53;20.93;;;10.60;99.90;;;;;;5076897;27;38827;-73
2021/12/24 01:47:00;;;;;;;;;;;10.50;99.90;;;;;;5079795;27;37918;-73
2021/12/24 01:49:26;;;;;;;57.93;21.10;;;10.60;99.90;;;;;;5077356;27;36989;-73
2021/12/24 01:51:53;;;;;;;47.97;19.67;;;10.50;99.90;;;;;;5081600;27;37567;-73
2021/12/24 01:54:20;;;;;;;54.93;19.17;;;10.60;99.90;;;;;;5084923;27;38417;-73
2021/12/24 01:56:47;;;;;;;47.50;20.70;;;10.60;99.90;;;;;;5083272;27;37600;-73
2021/12/24 01:59:13;;;;;;;49.37;20.40;;;10.60;99.90;;;;;;5086138;27;36868;-73
2021/12/24 02:01:40;;;;;;;47.03;17.57;;;10.60;99.90;;;;;;5087777;27;37540;-73
2021/12/24 02:04:07;;;;;;;56.30;18.40;;;10.60;99.90;;;;;;5090659;27;38119;-74
2021/12/24 02:06:33;;;;;;;45.93;17.27;;;10.60;99.90;;;;;;5089778;27;36820;-73
2021/12/24 02:08:59;;;;;;;41.27;17.37;;;10.50;99.90;;;;;;5069047;27;37799;-73
2021/12/24 02:11:25;;;;;;;48.70;18.13;;;10.50;99.90;;;;;;5079412;27;38521;-73
2021/12/24 02:13:52;;;;;;;41.30;16.60;;;10.50;99.90;;;;;;5083208;28;38806;-72
2021/12/24 02:16:39;;;;;;;54.57;17.20;;;10.50;99.90;;;;;;5080078;27;38513;-73
2021/12/24 02:29:56;;;;;;;46.73;17.60;;;10.50;99.90;;;;;;5092361;27;39035;-73
2021/12/24 02:32:22;;;;;;;42.43;17.03;;;10.50;99.90;;;;;;5086766;27;39252;-74
2021/12/24 02:34:49;;;;;;;47.87;17.23;;;10.50;99.90;;;;;;5094356;27;37743;-74
2021/12/24 02:37:15;;;;;;;38.20;16.60;;;10.50;99.90;;;;;;5083186;27;38417;-74
2021/12/24 02:39:42;;;;;;;37.23;15.87;;;10.40;99.90;;;;;;5082816;27;37456;-73
2021/12/24 02:42:15;;;;;;;39.47;17.20;;;10.30;99.90;;;;;;5087376;27;38543;-74
2021/12/24 02:44:41;;;;;;;;;;;10.30;99.90;;;;;;5082661;28;38283;-74
2021/12/24 02:55:12;;;;;;;41.57;15.83;;;10.50;99.90;;;;;;5087661;27;39136;-74
2021/12/24 02:57:39;;;;;;;42.87;17.30;;;10.50;99.90;;;;;;5086375;28;37350;-73
2021/12/24 03:00:14;;;;;;;37.53;14.80;;;10.50;99.90;;;;;;5093193;27;36472;-73
2021/12/24 03:02:44;;;;;;;37.30;14.23;;;10.50;99.90;;;;;;5091678;27;47749;-73
2021/12/24 03:05:12;;;;;;;37.00;14.97;;;10.50;99.90;;;;;;5067866;27;37758;-73
2021/12/24 03:07:40;;;;;;;24.77;12.07;;;10.50;99.90;;;;;;5076973;27;38686;-73
2021/12/24 03:10:12;;;;;;;36.03;12.70;;;10.50;99.90;;;;;;5075415;27;36658;-74
2021/12/24 03:12:40;;;;;;;35.25;11.80;;;10.60;99.90;;;;;;5088525;27;38021;-74
2021/12/24 03:15:08;;;;;;;34.50;12.97;;;10.60;99.90;;;;;;5074794;27;38247;-74
2021/12/24 03:17:34;;;;;;;27.70;13.10;;;10.50;99.90;;;;;;5086992;27;38554;-74
2021/12/24 03:20:07;;;;;;;29.47;12.23;;;10.60;99.90;;;;;;5090559;27;37410;-74
2021/12/24 03:23:02;;;;;;;37.97;11.10;;;10.60;99.90;;;;;;5080246;27;48601;-74
2021/12/24 03:25:28;;;;;;;33.33;10.83;;;10.60;99.90;;;;;;5080540;28;47401;-73
2021/12/24 03:27:55;;;;;;;26.77;10.97;;;10.60;99.90;;;;;;5092603;27;37856;-74
2021/12/24 03:30:21;;;;;;;38.00;11.40;;;10.70;99.90;;;;;;5074010;27;38540;-74
2021/12/24 03:32:47;;;;;;;22.80;9.77;;;10.70;99.90;;;;;;5077580;27;39904;-74
2021/12/24 03:35:13;;;;;;;33.50;10.87;;;10.70;99.90;;;;;;5082530;27;39055;-74
2021/12/24 03:37:39;;;;;;;27.70;10.10;;;10.70;99.90;;;;;;5085691;28;36882;-74
2021/12/24 03:40:06;;;;;;;29.63;10.53;;;10.70;99.90;;;;;;5091079;27;36351;-74
2021/12/24 03:42:36;;;;;;;24.83;10.97;;;10.70;99.90;;;;;;5093587;27;39446;-74
2021/12/24 03:45:19;;;;;;;25.37;8.40;;;10.70;99.90;;;;;;5087715;27;39032;-74
2021/12/24 03:47:52;;;;;;;;;;;10.60;99.90;;;;;;5103586;27;47211;-74
2021/12/24 03:50:18;;;;;;;30.52;9.88;;;10.60;99.90;;;;;;5086151;27;37369;-73
2021/12/24 03:54:56;;;;;;;43.73;11.50;;;10.60;99.90;;;;;;5081861;27;39652;-74
2021/12/24 03:55:31;;;;;;;34.10;10.80;;;10.60;99.90;;;;;;5077025;27;48704;-74
2021/12/24 03:57:57;;;;;;;43.47;10.60;;;10.50;99.90;;;;;;5092984;27;36742;-74
2021/12/24 04:00:29;;;;;;;29.90;9.70;;;10.40;99.90;;;;;;5081690;27;37510;-75
2021/12/24 04:02:56;;;;;;;34.55;9.95;;;10.40;99.90;;;;;;5094406;27;37890;-74
2021/12/24 04:05:22;;;;;;;36.60;9.83;;;10.30;99.90;;;;;;5087539;27;38667;-73
2021/12/24 04:07:48;;;;;;;35.50;9.40;;;10.30;99.90;;;;;;5084210;28;36741;-73
2021/12/24 04:10:33;;;;;;;33.93;8.57;;;10.20;99.90;;;;;;5083803;27;36847;-74
2021/12/24 04:12:59;;;;;;;30.00;8.13;;;10.20;99.90;;;;;;5083349;27;38718;-73
2021/12/24 04:15:25;;;;;;;24.37;7.33;;;10.10;99.90;;;;;;5079603;27;38247;-73
2021/12/24 04:17:51;;;;;;;34.97;8.60;;;10.10;99.90;;;;;;5085699;28;36745;-73
2021/12/24 04:25:47;;;;;;;41.53;8.93;;;9.90;99.90;;;;;;5082227;27;38980;-73
2021/12/24 04:28:13;;;;;;;41.80;8.03;;;9.90;99.90;;;;;;5083170;27;37698;-74
2021/12/24 04:30:45;;;;;;;31.40;7.03;;;9.90;99.90;;;;;;5097302;27;37209;-74
2021/12/24 04:33:21;;;;;;;33.67;7.40;;;9.90;99.90;;;;;;5076472;27;38682;-73
2021/12/24 04:35:58;;;;;;;30.63;7.53;;;9.90;99.90;;;;;;5080077;28;38144;-73
2021/12/24 04:38:34;;;;;;;34.07;7.60;;;9.90;99.90;;;;;;5078733;27;36666;-73
2021/12/24 04:52:07;;;;;;;42.73;7.37;;;9.60;99.90;;;;;;5081209;27;37572;-73
2021/12/24 05:03:05;;;;;;;31.60;6.63;;;9.70;99.90;;;;;;5070395;27;50708;-72
2021/12/24 05:05:47;;;;;;;28.33;7.23;;;9.70;99.90;;;;;;5072319;27;47748;-73
2021/12/24 05:10:40;;;;;;;35.33;6.63;;;9.60;99.90;;;;;;5080567;27;37940;-73
2021/12/24 05:13:11;;;;;;;38.33;7.57;;;9.60;99.90;;;;;;5098170;27;37009;-72
2021/12/24 05:15:39;;;;;;;39.23;7.60;;;9.60;99.90;;;;;;5080192;28;38272;-71
2021/12/24 05:23:37;;;;;;;34.83;6.03;;;9.60;99.90;;;;;;5077707;27;49206;-73
2021/12/24 05:26:03;;;;;;;43.60;7.37;;;9.60;99.90;;;;;;5081545;27;37949;-73
2021/12/24 05:28:29;;;;;;;30.40;5.73;;;9.60;99.90;;;;;;5082167;28;38577;-73
2021/12/24 05:30:55;;;;;;;26.57;6.43;;;9.60;99.90;;;;;;5092422;27;37245;-73
2021/12/24 05:33:22;;;;;;;37.13;7.17;;;9.50;99.90;;;;;;5089508;27;37994;-71
2021/12/24 05:35:48;;;;;;;46.07;7.03;;;9.60;99.90;;;;;;5083571;27;37612;-72
2021/12/24 05:38:15;;;;;;;36.63;7.77;;;9.50;99.90;;;;;;5079800;27;37234;-73
2021/12/24 05:40:42;;;;;;;33.53;6.20;;;9.50;99.90;;;;;;5087038;27;37536;-72
2021/12/24 05:43:09;;;;;;;32.60;6.33;;;9.50;99.90;;;;;;5089646;27;37646;-72
2021/12/24 05:45:36;;;;;;;29.40;6.37;;;9.50;99.90;;;;;;5092260;27;39875;-73
2021/12/24 05:48:02;;;;;;;32.50;6.67;;;9.60;99.90;;;;;;5097622;27;37418;-73
2021/12/24 05:50:29;;;;;;;38.10;6.87;;;9.60;99.90;;;;;;5087154;27;47028;-73
2021/12/24 05:52:55;;;;;;;27.83;6.10;;;9.50;99.90;;;;;;5090335;27;36932;-73
2021/12/24 05:55:21;;;;;;;41.40;6.07;;;9.50;99.90;;;;;;5080893;27;39473;-72
2021/12/24 05:57:47;;;;;;;37.23;5.43;;;9.50;99.90;;;;;;5083501;28;38201;-73
2021/12/24 06:00:15;;;;;;;37.53;6.00;;;9.40;99.90;;;;;;5070856;27;38498;-73
2021/12/24 06:02:41;;;;;;;27.47;5.70;;;9.40;99.90;;;;;;5101104;27;37235;-73
2021/12/24 06:05:08;;;;;;;33.87;6.03;;;9.40;99.90;;;;;;5103757;27;37920;-72
2021/12/24 06:07:34;;;;;;;25.10;6.23;;;9.50;99.90;;;;;;5102594;27;37226;-72
2021/12/24 06:10:00;;;;;;;30.93;5.63;;;9.50;99.90;;;;;;5085674;27;37482;-72
2021/12/24 06:12:26;;;;;;;35.70;5.90;;;9.50;99.90;;;;;;5072116;27;37335;-73
2021/12/24 06:14:55;;;;;;;35.90;5.53;;;9.60;99.90;;;;;;5095929;27;38800;-72
2021/12/24 06:17:23;;;;;;;32.67;5.70;;;9.60;99.90;;;;;;5088154;27;39680;-72
2021/12/24 06:19:50;;;;;;;32.47;6.77;;;9.60;99.90;;;;;;5084067;28;39399;-73
2021/12/24 06:22:16;;;;;;;33.97;5.73;;;9.60;99.90;;;;;;5082353;27;38149;-73
2021/12/24 06:24:42;;;;;;;29.63;5.23;;;9.60;99.90;;;;;;5087235;27;40282;-73
2021/12/24 06:27:08;;;;;;;39.33;6.00;;;9.50;99.90;;;;;;5076666;27;38347;-72
2021/12/24 06:29:34;;;;;;;37.97;5.93;;;9.50;99.90;;;;;;5078611;27;38686;-72
2021/12/24 06:32:00;;;;;;;28.30;6.23;;;9.50;99.90;;;;;;5087080;27;36151;-71
2021/12/24 06:34:30;;;;;;;24.73;4.87;;;9.40;99.90;;;;;;5074414;28;46737;-73
2021/12/24 06:36:58;;;;;;;33.77;6.17;;;9.30;99.90;;;;;;5077342;27;38799;-72
2021/12/24 06:39:24;;;;;;;28.23;5.13;;;9.30;99.90;;;;;;5071678;28;38264;-72
2021/12/24 06:41:50;;;;;;;32.57;5.90;;;9.30;99.90;;;;;;5080183;27;37126;-72
2021/12/24 06:44:16;;;;;;;27.93;6.07;;;9.40;99.90;;;;;;5082193;27;39576;-72
2021/12/24 06:46:43;;;;;;;35.97;6.17;;;9.40;99.90;;;;;;5079769;27;38655;-73
2021/12/24 06:49:11;;;;;;;41.40;6.63;;;9.30;99.90;;;;;;5069998;27;38159;-73
2021/12/24 06:51:37;;;;;;;24.63;4.73;;;9.20;99.90;;;;;;5081726;27;37997;-73
2021/12/24 06:54:04;;;;;;;28.13;5.73;;;9.20;99.90;;;;;;5082435;27;38723;-71
2021/12/24 06:56:31;;;;;;;31.40;6.20;;;9.20;99.90;;;;;;5071512;27;40078;-72
2021/12/24 06:58:57;;;;;;;33.87;5.53;;;9.10;99.90;;;;;;5079273;27;37629;-72
2021/12/24 07:01:23;;;;;;;35.73;5.63;;;9.10;99.90;;;;;;5072520;28;38845;-72
2021/12/24 07:03:49;;;;;;;23.67;5.70;;;9.10;99.90;;;;;;5078971;28;39838;-73
2021/12/24 07:06:15;;;;;;;37.00;5.80;;;9.10;99.90;;;;;;5075511;27;39783;-73
2021/12/24 07:08:42;;;;;;;22.77;4.93;;;9.10;99.90;;;;;;5079900;27;37963;-72
2021/12/24 07:11:08;;;;;;;39.03;6.13;;;9.10;99.90;;;;;;5079761;27;37398;-72
2021/12/24 07:13:34;;;;;;;29.23;6.03;;;9.10;99.90;;;;;;5087000;27;38781;-73
2021/12/24 07:16:00;;;;;;;35.80;5.07;;;9.10;99.90;;;;;;5085823;27;38360;-73
2021/12/24 07:18:26;;;;;;;32.33;5.60;;;9.10;99.90;;;;;;5083150;28;40936;-73
2021/12/24 07:20:52;;;;;;;31.20;5.27;;;9.10;99.90;;;;;;5089214;27;37078;-71
2021/12/24 07:23:18;;;;;;;36.17;6.13;;;9.10;99.90;;;;;;5097743;27;39010;-72
2021/12/24 07:25:46;;;;;;;30.63;5.20;;;9.00;99.90;;;;;;5096026;27;37983;-72
2021/12/24 07:28:12;;;;;;;35.60;6.07;;;9.00;99.90;;;;;;5110868;27;37630;-73
2021/12/24 07:30:38;;;;;;;23.37;5.37;;;9.00;99.90;;;;;;5086548;27;37772;-73
2021/12/24 07:33:04;;;;;;;26.23;5.10;;;9.00;99.90;;;;;;5082105;27;38759;-73
2021/12/24 07:35:30;;;;;;;33.43;6.03;;;8.90;99.90;;;;;;5090996;27;38766;-72
2021/12/24 07:37:56;;;;;;;34.37;5.70;;;8.90;99.90;;;;;;5086402;27;39586;-72
2021/12/24 07:40:25;;;;;;;34.57;5.57;;;8.80;99.90;;;;;;5083111;27;38106;-73
2021/12/24 07:42:51;;;;;;;30.87;5.57;;;8.80;99.90;;;;;;5078266;27;38887;-72
2021/12/24 07:45:18;;;;;;;26.37;5.00;;;8.70;99.90;;;;;;5079071;27;38972;-72
2021/12/24 07:47:54;;;;;;;32.30;5.80;;;8.70;99.90;;;;;;5078318;27;36606;-74
2021/12/24 07:52:53;;;;;;;43.25;7.30;;;8.80;99.90;;;;;;5085486;27;39304;-72
2021/12/24 07:55:19;;;;;;;37.77;6.23;;;8.80;99.90;;;;;;5089759;27;38935;-71
2021/12/24 07:57:47;;;;;;;24.67;5.70;;;8.80;99.90;;;;;;5103808;27;38042;-72
2021/12/24 08:00:13;;;;;;;32.47;7.10;;;8.90;99.90;;;;;;5088659;27;36138;-72
2021/12/24 08:02:40;;;;;;;41.13;6.93;;;9.00;99.90;;;;;;5080483;28;38461;-73
2021/12/24 08:05:06;;;;;;;27.27;6.20;;;9.00;99.90;;;;;;5081565;28;39334;-72
2021/12/24 08:07:32;;;;;;;32.53;5.83;;;9.10;99.90;;;;;;5083650;27;37560;-73
2021/12/24 08:09:58;;;;;;;32.60;6.07;;;9.10;99.90;;;;;;5083013;27;36888;-73
2021/12/24 08:12:24;;;;;;;38.80;6.77;;;9.10;99.90;;;;;;5085372;27;39554;-73
2021/12/24 08:14:50;;;;;;;38.63;6.93;;;9.20;99.90;;;;;;5088153;27;38231;-73
2021/12/24 08:17:16;;;;;;;32.07;6.27;;;9.20;99.90;;;;;;5079037;27;38489;-73
2021/12/24 08:19:43;;;;;;;34.80;6.57;;;9.20;99.90;;;;;;5083976;28;36523;-72
2021/12/24 08:22:12;;;;;;;33.40;6.73;;;9.20;99.90;;;;;;5091388;27;40105;-71
2021/12/24 08:24:39;;;;;;;22.73;6.20;;;9.30;99.90;;;;;;5087986;28;37478;-72
2021/12/24 08:27:06;;;;;;;31.23;6.33;;;9.30;99.90;;;;;;5094624;27;38770;-72
2021/12/24 08:29:33;;;;;;;31.20;6.37;;;9.30;99.90;;;;;;5092283;27;36982;-72
2021/12/24 08:32:01;;;;;;;22.80;6.47;;;9.20;99.90;;;;;;5097465;27;39612;-72
2021/12/24 08:34:27;;;;;;;34.57;6.83;;;9.30;99.90;;;;;;5087386;27;48868;-72
2021/12/24 08:36:53;;;;;;;30.30;6.70;;;9.30;99.90;;;;;;5079154;27;37728;-72
2021/12/24 08:39:20;;;;;;;31.07;7.47;;;9.40;99.90;;;;;;5078598;27;37859;-73
2021/12/24 08:41:46;;;;;;;32.60;8.23;;;9.40;99.90;;;;;;5091098;27;39633;-73
2021/12/24 08:44:12;;;;;;;25.47;7.17;;;9.40;99.90;;;;;;5080376;27;38705;-72
2021/12/24 08:46:39;;;;;;;27.47;8.00;;;9.40;99.90;;;;;;5085263;27;37414;-72
2021/12/24 08:49:05;;;;;;;38.00;9.37;;;9.40;99.90;;;;;;5081262;28;39061;-72
2021/12/24 08:51:31;;;;;;;33.30;7.57;;;9.50;99.90;;;;;;5077453;27;39644;-72
2021/12/24 08:53:58;;;;;;;38.87;9.10;;;9.50;99.90;;;;;;5085054;28;39271;-74
2021/12/24 08:56:24;;;;;;;27.63;7.37;;;9.50;99.90;;;;;;5080174;27;38160;-70
2021/12/24 08:58:50;;;;;;;47.17;8.60;;;9.50;99.90;;;;;;5085151;28;37587;-70
2021/12/24 09:01:17;;;;;;;28.77;8.00;;;9.60;99.90;;;;;;5079521;27;37830;-71
2021/12/24 09:03:43;;;;;;;40.23;9.10;;;9.60;99.90;;;;;;5085415;27;38539;-71
2021/12/24 09:06:09;;;;;;;36.27;9.53;;;9.60;99.90;;;;;;5078454;27;37335;-70
2021/12/24 09:08:35;;;;;;;40.07;9.70;;;9.60;99.90;;;;;;5089720;27;36456;-70
2021/12/24 09:11:02;;;;;;;31.10;8.07;;;9.60;99.90;;;;;;5086166;27;37740;-71
2021/12/24 09:13:29;;;;;;;37.00;9.10;;;9.60;99.90;;;;;;5098719;27;37226;-71
2021/12/24 09:15:55;;;;;;;36.77;9.23;;;9.70;99.90;;;;;;5095099;27;37893;-72
2021/12/24 09:18:22;;;;;;;32.63;7.97;;;9.70;99.90;;;;;;5096297;27;37426;-71
2021/12/24 09:20:49;;;;;;;32.00;9.27;;;9.70;99.90;;;;;;5085869;27;38936;-71
2021/12/24 09:23:15;;;;;;;31.83;8.83;;;9.70;99.90;;;;;;5081966;27;39155;-72
2021/12/24 09:25:42;;;;;;;30.83;8.27;;;9.80;99.90;;;;;;5092578;27;36745;-71
2021/12/24 09:28:08;;;;;;;31.10;7.77;;;9.80;99.90;;;;;;5075130;27;38201;-71
2021/12/24 09:30:35;;;;;;;31.67;8.17;;;9.80;99.90;;;;;;5081264;27;38676;-71
2021/12/24 09:33:03;;;;;;;30.23;9.07;;;9.80;99.90;;;;;;5085688;27;39112;-71
2021/12/24 09:35:29;;;;;;;28.30;7.30;;;9.80;99.90;;;;;;5080582;27;48520;-71
2021/12/24 09:37:58;;;;;;;28.83;7.50;;;9.90;99.90;;;;;;5083751;27;36201;-70
2021/12/24 09:40:25;;;;;;;32.47;7.93;;;9.90;99.90;;;;;;5078767;27;39700;-71
2021/12/24 09:42:51;;;;;;;32.73;6.67;;;10.00;99.90;;;;;;5085508;27;38588;-71
2021/12/24 09:45:18;;;;;;;25.37;6.03;;;10.00;99.90;;;;;;5083751;27;39577;-71
2021/12/24 09:47:45;;;;;;;20.30;7.77;;;10.10;99.90;;;;;;5083375;27;37842;-71
2021/12/24 09:50:16;;;;;;;25.67;7.20;;;10.10;99.90;;;;;;5077236;27;38989;-71
2021/12/24 09:52:44;;;;;;;27.80;6.93;;;10.20;99.90;;;;;;5084116;28;40129;-71
2021/12/24 09:55:14;;;;;;;23.97;6.33;;;10.30;99.90;;;;;;5094722;27;38534;-71
2021/12/24 09:57:42;;;;;;;25.63;6.77;;;10.30;99.90;;;;;;5091649;27;37917;-72
2021/12/24 10:00:10;;;;;;;27.03;6.63;;;10.20;99.90;;;;;;5090573;27;40338;-71
2021/12/24 10:02:44;;;;;;;24.83;6.37;;;10.20;99.90;;;;;;5084073;27;37330;-73
2021/12/24 10:05:34;;;;;;;30.83;8.13;;;10.20;99.90;;;;;;5081249;27;37850;-71
2021/12/24 10:08:06;;;;;;;32.93;8.00;;;10.20;99.90;;;;;;5081830;27;37418;-72
2021/12/24 10:10:34;;;;;;;28.63;7.57;;;10.20;99.90;;;;;;5086976;27;48985;-71
2021/12/24 10:13:41;;;;;;;25.33;7.33;;;10.20;99.90;;;;;;5091532;27;40721;-71
2021/12/24 10:16:16;;;;;;;30.50;6.57;;;10.20;99.90;;;;;;5078573;27;47448;-72
2021/12/24 10:18:46;;;;;;;23.10;7.03;;;10.30;99.90;;;;;;5085000;27;37840;-71
2021/12/24 10:21:14;;;;;;;40.33;8.87;;;10.20;99.90;;;;;;5085965;27;40823;-71
2021/12/24 10:23:55;;;;;;;25.53;6.57;;;10.20;99.90;;;;;;5084879;27;39561;-71
2021/12/24 10:26:30;;;;;;;18.80;5.83;;;10.30;99.90;;;;;;5086901;27;37975;-71
2021/12/24 10:29:06;;;;;;;26.57;7.13;;;10.30;99.90;;;;;;5097096;27;37868;-71
2021/12/24 10:31:43;;;;;;;29.33;5.83;;;10.40;99.90;;;;;;5084414;28;47101;-72
2021/12/24 10:34:29;;;;;;;18.97;6.03;;;10.40;99.90;;;;;;5083882;28;39871;-72
2021/12/24 10:37:06;;;;;;;17.07;5.70;;;10.50;99.90;;;;;;5078277;28;39682;-71
2021/12/24 10:39:47;;;;;;;26.73;5.63;;;10.50;99.90;;;;;;5081692;27;47578;-72
2021/12/24 10:42:25;;;;;;;29.87;5.90;;;10.60;99.90;;;;;;5074498;27;40588;-70
2021/12/24 10:44:52;;;;;;;18.77;5.23;;;10.60;99.90;;;;;;5093811;27;38341;-71
2021/12/24 10:47:28;;;;;;;28.27;6.13;;;10.70;99.90;;;;;;5086273;27;38636;-71
2021/12/24 10:50:04;;;;;;;26.83;6.20;;;10.70;99.90;;;;;;5092471;27;37904;-71
2021/12/24 10:52:57;;;;;;;23.53;6.47;;;10.70;99.90;;;;;;5079493;28;47597;-71
2021/12/24 10:55:31;;;;;;;30.23;7.60;;;10.80;99.90;;;;;;5086174;27;40392;-71
2021/12/24 10:57:59;;;;;;;18.47;5.37;;;10.80;99.90;;;;;;5098539;27;37819;-72
2021/12/24 11:00:42;;;;;;;27.53;5.80;;;10.80;99.90;;;;;;5097286;27;36353;-72
2021/12/24 11:03:15;;;;;;;26.87;6.10;;;10.80;99.90;;;;;;5088507;27;38709;-72
2021/12/24 11:05:43;;;;;;;;;;;10.90;99.90;;;;;;5085284;27;38331;-71
2021/12/24 11:08:17;;;;;;;24.87;4.63;;;10.90;99.90;;;;;;5090701;27;38179;-72
2021/12/24 11:10:47;;;;;;;19.00;4.97;;;11.00;99.90;;;;;;5084438;27;37363;-72
2021/12/24 11:13:20;;;;;;;20.80;4.63;;;11.10;99.90;;;;;;5083263;27;39476;-72
2021/12/24 11:15:51;;;;;;;21.70;5.85;;;11.10;99.90;;;;;;5083356;27;38911;-71
2021/12/24 11:18:34;;;;;;;17.33;4.93;;;11.10;99.90;;;;;;5083564;27;37298;-74
2021/12/24 11:21:05;;;;;;;;;;;11.10;99.90;;;;;;5082193;27;36925;-70
2021/12/24 11:23:33;;;;;;;21.77;5.47;;;11.00;99.90;;;;;;5084746;28;47454;-71
2021/12/24 11:26:08;;;;;;;17.27;4.93;;;11.00;99.90;;;;;;5092705;27;38175;-71
2021/12/24 11:28:36;;;;;;;22.37;5.07;;;11.00;99.90;;;;;;5093354;27;48669;-70
2021/12/24 11:31:08;;;;;;;35.00;7.17;;;11.00;99.90;;;;;;5085216;27;37674;-70
2021/12/24 11:33:37;;;;;;;24.60;5.88;;;11.00;99.90;;;;;;5090383;27;38730;-70
2021/12/24 11:36:06;;;;;;;19.10;4.43;;;11.00;99.90;;;;;;5085743;27;37413;-70
2021/12/24 11:38:36;;;;;;;21.83;6.10;;;10.90;99.90;;;;;;5086762;27;37586;-72
2021/12/24 11:41:05;;;;;;;23.33;5.83;;;10.90;99.90;;;;;;5083915;27;37113;-71
2021/12/24 11:43:36;;;;;;;26.33;6.17;;;11.00;99.90;;;;;;5090045;27;38231;-71
2021/12/24 11:46:06;;;;;;;15.40;4.30;;;11.00;99.90;;;;;;5081776;27;39175;-71
2021/12/24 11:48:33;;;;;;;21.10;5.17;;;11.00;99.90;;;;;;5093700;27;37854;-72
2021/12/24 11:51:01;;;;;;;27.60;5.30;;;11.10;99.90;;;;;;5076082;27;37562;-72
2021/12/24 11:53:30;;;;;;;29.97;7.10;;;11.00;99.90;;;;;;5083042;27;47802;-72
2021/12/24 11:56:03;;;;;;;25.93;5.60;;;11.00;99.90;;;;;;5081613;27;39641;-72
2021/12/24 11:58:32;;;;;;;20.23;4.83;;;11.00;99.90;;;;;;5081849;27;47242;-70
2021/12/24 12:01:05;;;;;;;14.67;4.83;;;10.90;99.90;;;;;;5078142;28;37047;-73
2021/12/24 12:03:33;;;;;;;20.40;4.73;;;10.90;99.90;;;;;;5072055;27;47297;-72
2021/12/24 12:06:00;;;;;;;23.90;5.37;;;10.80;99.90;;;;;;5089082;27;38564;-73
2021/12/24 12:08:27;;;;;;;22.60;5.80;;;10.80;99.90;;;;;;5082571;27;47144;-72
2021/12/24 12:10:57;;;;;;;27.73;6.27;;;10.80;99.90;;;;;;5084293;27;38091;-71
2021/12/24 12:13:52;;;;;;;27.03;6.17;;;10.80;99.90;;;;;;5084957;27;38879;-70
2021/12/24 12:16:28;;;;;;;27.80;6.20;;;10.80;99.90;;;;;;5084159;27;38516;-70
2021/12/24 12:19:26;;;;;;;22.53;6.60;;;10.70;99.90;;;;;;5086020;27;38571;-70
2021/12/24 12:23:01;;;;;;;26.43;6.97;;;10.70;99.90;;;;;;5082101;27;47923;-71
2021/12/24 12:25:02;;;;;;;27.70;6.33;;;10.70;99.90;;;;;;5082870;27;48326;-71
2021/12/24 12:27:44;;;;;;;22.47;6.13;;;10.70;99.90;;;;;;5100996;27;47447;-70
2021/12/24 12:30:37;;;;;;;24.70;5.67;;;10.70;99.90;;;;;;5083834;27;36992;-71
2021/12/24 12:33:13;;;;;;;30.92;6.43;;;10.70;99.90;;;;;;5088236;27;37174;-71
2021/12/24 12:35:44;;;;;;;27.17;6.00;;;10.70;99.90;;;;;;5102208;27;39959;-71
2021/12/24 12:38:39;;;;;;;16.43;4.80;;;10.60;99.90;;;;;;5082479;27;38882;-72
2021/12/24 12:41:31;;;;;;;29.40;6.10;;;10.60;99.90;;;;;;5084804;27;39533;-72
2021/12/24 12:44:01;;;;;;;28.20;5.53;;;10.60;99.90;;;;;;5076502;28;37189;-71
2021/12/24 12:46:32;;;;;;;31.43;6.07;;;10.60;99.90;;;;;;5086700;27;47572;-71
2021/12/24 12:49:01;;;;;;;29.13;6.10;;;10.60;99.90;;;;;;5085818;28;39015;-72
2021/12/24 12:51:48;;;;;;;27.93;6.33;;;10.70;99.90;;;;;;5080543;28;46995;-72
2021/12/24 12:54:40;;;;;;;24.57;5.17;;;10.70;99.90;;;;;;5083509;27;38822;-72
2021/12/24 12:57:28;;;;;;;27.83;7.10;;;10.70;99.90;;;;;;5084533;27;38546;-72
2021/12/24 13:00:20;;;;;;;35.17;6.90;;;10.70;99.90;;;;;;5083339;27;38366;-72
2021/12/24 13:03:01;;;;;;;25.58;6.15;;;10.80;99.90;;;;;;5071665;27;48895;-72
2021/12/24 13:05:30;;;;;;;19.43;5.53;;;10.80;99.90;;;;;;5082402;27;37275;-72
2021/12/24 13:08:09;;;;;;;26.20;5.83;;;10.90;99.90;;;;;;5077654;27;39426;-71
2021/12/24 13:10:35;;;;;;;31.13;6.87;;;10.80;99.90;;;;;;5082453;27;47621;-71
2021/12/24 13:13:03;;;;;;;32.60;6.87;;;10.90;99.90;;;;;;5084312;27;37512;-72
2021/12/24 13:15:31;;;;;;;31.53;6.13;;;10.90;99.90;;;;;;5080775;27;47422;-73
2021/12/24 13:18:02;;;;;;;28.50;6.93;;;10.90;99.90;;;;;;5101270;27;37668;-71
2021/12/24 13:22:26;;;;;;;32.73;6.93;;;10.80;99.90;;;;;;5080768;28;46073;-72
2021/12/24 13:23:23;;;;;;;28.43;7.30;;;10.80;99.90;;;;;;5084071;27;37381;-72
2021/12/24 13:25:49;;;;;;;28.40;5.47;;;10.80;99.90;;;;;;5079872;27;38003;-72
2021/12/24 13:28:15;;;;;;;29.23;6.33;;;10.80;99.90;;;;;;5080361;27;40773;-71
2021/12/24 13:30:41;;;;;;;35.63;6.10;;;10.80;99.90;;;;;;5082921;27;37709;-68
2021/12/24 13:33:08;;;;;;;23.50;5.70;;;10.80;99.90;;;;;;5081270;28;37506;-71
2021/12/24 13:35:44;;;;;;;22.97;5.20;;;10.80;99.90;;;;;;5084971;27;37354;-71
2021/12/24 13:38:17;;;;;;;23.73;5.47;;;10.80;99.90;;;;;;5082574;27;38950;-71
2021/12/24 13:40:44;;;;;;;34.87;7.07;;;10.80;99.90;;;;;;5080542;27;38539;-71
2021/12/24 13:43:13;;;;;;;19.33;4.63;;;10.80;99.90;;;;;;5080280;27;37613;-71
2021/12/24 13:45:43;;;;;;;19.37;5.33;;;10.80;99.90;;;;;;5077435;27;37388;-72
2021/12/24 13:48:24;;;;;;;22.20;4.83;;;10.80;99.90;;;;;;5080896;27;40521;-72
2021/12/24 13:56:35;;;;;;;23.77;4.53;;;10.80;99.90;;;;;;5086105;27;37546;-71
2021/12/24 13:59:03;;;;;;;31.30;5.17;;;10.80;99.90;;;;;;5085499;28;38626;-71
2021/12/24 14:01:31;;;;;;;21.73;5.10;;;10.80;99.90;;;;;;5089235;27;48843;-71
2021/12/24 14:04:00;;;;;;;27.10;4.67;;;10.70;99.90;;;;;;5080544;27;39334;-71
2021/12/24 14:06:44;;;;;;;27.10;5.30;;;10.70;99.90;;;;;;5085858;27;46982;-71
2021/12/24 14:09:16;;;;;;;19.30;4.47;;;10.80;99.90;;;;;;5083791;27;42669;-72
2021/12/24 14:11:45;;;;;;;25.43;5.67;;;10.80;99.90;;;;;;5083724;28;38890;-72
2021/12/24 14:14:37;;;;;;;23.47;5.30;;;10.80;99.90;;;;;;5080255;28;37273;-72
2021/12/24 14:19:44;;;;;;;24.77;5.53;;;10.80;99.90;;;;;;5078845;27;47888;-70
2021/12/24 14:22:15;;;;;;;31.80;6.90;;;10.80;99.90;;;;;;5087368;27;38598;-72
2021/12/24 14:25:02;;;;;;;38.60;10.57;;;10.80;99.90;;;;;;5088555;27;38309;-71
2021/12/24 14:27:31;;;;;;;30.47;8.97;;;10.70;99.90;;;;;;5088810;28;47361;-72
2021/12/24 14:29:59;;;;;;;29.60;7.07;;;10.70;99.90;;;;;;5079581;27;38961;-72
2021/12/24 14:32:36;;;;;;;31.90;6.30;;;10.70;99.90;;;;;;5097430;27;37414;-72
2021/12/24 14:35:24;;;;;;;28.80;6.27;;;10.70;99.90;;;;;;5086899;27;39019;-71
2021/12/24 14:37:59;;;;;;;18.43;5.20;;;10.70;99.90;;;;;;5078559;27;50206;-72
2021/12/24 14:40:27;;;;;;;33.33;6.63;;;10.70;99.90;;;;;;5081648;27;40542;-70
2021/12/24 14:42:55;;;;;;;20.50;5.73;;;10.60;99.90;;;;;;5085553;28;38759;-70